sensor_id;sensor_type;location;lat;lon;timestamp;temperature;humidity
20481;DHT22;10399;50.754;3.366;2022-07-10T00:00:15;18.50;99.90
20481;DHT22;10399;50.754;3.366;2022-07-10T00:02:44;18.40;99.90
20481;DHT22;10399;50.754;3.366;2022-07-10T00:05:12;18.50;99.90
20481;DHT22;10399;50.754;3.366;2022-07-10T00:07:46;18.40;99.90
20481;DHT22;10399;50.754;3.366;2022-07-10T00:10:15;18.40;99.90
20481;DHT22;10399;50.754;3.366;2022-07-10T00:12:42;18.30;99.90
20481;DHT22;10399;50.754;3.366;2022-07-10T00:15:09;18.30;99.90
20481;DHT22;10399;50.754;3.366;2022-07-10T00:17:37;18.30;99.90
20481;DHT22;10399;50.754;3.366;2022-07-10T00:20:07;18.30;99.90
20481;DHT22;10399;50.754;3.366;2022-07-10T00:22:34;18.30;99.90
20481;DHT22;10399;50.754;3.366;2022-07-10T00:25:10;18.20;99.90
20481;DHT22;10399;50.754;3.366;2022-07-10T00:27:38;18.20;99.90
20481;DHT22;10399;50.754;3.366;2022-07-10T00:30:06;18.20;99.90
20481;DHT22;10399;50.754;3.366;2022-07-10T00:32:35;18.20;99.90
20481;DHT22;10399;50.754;3.366;2022-07-10T00:35:02;18.00;99.90
20481;DHT22;10399;50.754;3.366;2022-07-10T00:37:31;18.10;99.90
20481;DHT22;10399;50.754;3.366;2022-07-10T00:39:58;18.20;99.90
20481;DHT22;10399;50.754;3.366;2022-07-10T00:42:27;18.10;99.90
20481;DHT22;10399;50.754;3.366;2022-07-10T00:44:54;18.10;99.90
20481;DHT22;10399;50.754;3.366;2022-07-10T00:47:21;18.10;99.90
20481;DHT22;10399;50.754;3.366;2022-07-10T00:49:49;18.20;99.90
20481;DHT22;10399;50.754;3.366;2022-07-10T00:52:17;18.00;99.90
20481;DHT22;10399;50.754;3.366;2022-07-10T00:54:47;18.00;99.90
20481;DHT22;10399;50.754;3.366;2022-07-10T00:57:15;18.10;99.90
20481;DHT22;10399;50.754;3.366;2022-07-10T00:59:44;18.10;99.90
20481;DHT22;10399;50.754;3.366;2022-07-10T01:02:12;18.10;99.90
20481;DHT22;10399;50.754;3.366;2022-07-10T01:04:40;18.10;99.90
20481;DHT22;10399;50.754;3.366;2022-07-10T01:07:08;18.10;99.90
20481;DHT22;10399;50.754;3.366;2022-07-10T01:09:35;18.20;99.90
20481;DHT22;10399;50.754;3.366;2022-07-10T01:12:02;18.10;99.90
20481;DHT22;10399;50.754;3.366;2022-07-10T01:14:30;18.00;99.90
20481;DHT22;10399;50.754;3.366;2022-07-10T01:16:58;17.90;99.90
20481;DHT22;10399;50.754;3.366;2022-07-10T01:19:25;17.90;99.90
20481;DHT22;10399;50.754;3.366;2022-07-10T01:21:55;17.90;99.90
20481;DHT22;10399;50.754;3.366;2022-07-10T01:24:24;17.80;99.90
20481;DHT22;10399;50.754;3.366;2022-07-10T01:26:52;17.90;99.90
20481;DHT22;10399;50.754;3.366;2022-07-10T01:29:22;17.80;99.90
20481;DHT22;10399;50.754;3.366;2022-07-10T01:31:49;17.80;99.90
20481;DHT22;10399;50.754;3.366;2022-07-10T01:34:23;17.80;99.90
20481;DHT22;10399;50.754;3.366;2022-07-10T01:36:51;17.70;99.90
20481;DHT22;10399;50.754;3.366;2022-07-10T01:39:18;17.70;99.90
20481;DHT22;10399;50.754;3.366;2022-07-10T01:41:45;17.70;99.90
20481;DHT22;10399;50.754;3.366;2022-07-10T01:44:13;17.60;99.90
20481;DHT22;10399;50.754;3.366;2022-07-10T01:46:47;17.60;99.90
20481;DHT22;10399;50.754;3.366;2022-07-10T01:49:16;17.70;99.90
20481;DHT22;10399;50.754;3.366;2022-07-10T01:51:45;17.70;99.90
20481;DHT22;10399;50.754;3.366;2022-07-10T01:54:12;17.60;99.90
20481;DHT22;10399;50.754;3.366;2022-07-10T01:56:39;17.50;99.90
20481;DHT22;10399;50.754;3.366;2022-07-10T01:59:06;17.70;99.90
20481;DHT22;10399;50.754;3.366;2022-07-10T02:01:33;17.50;99.90
20481;DHT22;10399;50.754;3.366;2022-07-10T02:04:00;17.60;99.90
20481;DHT22;10399;50.754;3.366;2022-07-10T02:06:47;17.70;99.90
20481;DHT22;10399;50.754;3.366;2022-07-10T02:09:15;17.50;99.90
20481;DHT22;10399;50.754;3.366;2022-07-10T02:11:43;17.60;99.90
20481;DHT22;10399;50.754;3.366;2022-07-10T02:14:10;17.50;99.90
20481;DHT22;10399;50.754;3.366;2022-07-10T02:16:37;17.60;99.90
20481;DHT22;10399;50.754;3.366;2022-07-10T02:19:05;17.50;99.90
20481;DHT22;10399;50.754;3.366;2022-07-10T02:21:33;17.40;99.90
20481;DHT22;10399;50.754;3.366;2022-07-10T02:24:00;17.20;99.90
20481;DHT22;10399;50.754;3.366;2022-07-10T02:26:27;17.10;99.90
20481;DHT22;10399;50.754;3.366;2022-07-10T02:28:56;17.10;99.90
20481;DHT22;10399;50.754;3.366;2022-07-10T02:31:23;17.10;99.90
20481;DHT22;10399;50.754;3.366;2022-07-10T02:33:50;17.10;99.90
20481;DHT22;10399;50.754;3.366;2022-07-10T02:36:21;17.10;99.90
20481;DHT22;10399;50.754;3.366;2022-07-10T02:38:48;16.90;99.90
20481;DHT22;10399;50.754;3.366;2022-07-10T02:41:18;17.00;99.90
20481;DHT22;10399;50.754;3.366;2022-07-10T02:43:45;16.90;99.90
20481;DHT22;10399;50.754;3.366;2022-07-10T02:46:12;17.00;99.90
20481;DHT22;10399;50.754;3.366;2022-07-10T02:48:39;16.90;99.90
20481;DHT22;10399;50.754;3.366;2022-07-10T02:51:07;16.90;99.90
20481;DHT22;10399;50.754;3.366;2022-07-10T02:53:34;16.90;99.90
20481;DHT22;10399;50.754;3.366;2022-07-10T02:56:01;16.90;99.90
20481;DHT22;10399;50.754;3.366;2022-07-10T02:58:28;16.90;99.90
20481;DHT22;10399;50.754;3.366;2022-07-10T03:00:55;16.80;99.90
20481;DHT22;10399;50.754;3.366;2022-07-10T03:03:22;16.80;99.90
20481;DHT22;10399;50.754;3.366;2022-07-10T03:05:49;16.80;99.90
20481;DHT22;10399;50.754;3.366;2022-07-10T03:08:16;16.80;99.90
20481;DHT22;10399;50.754;3.366;2022-07-10T03:10:43;16.70;99.90
20481;DHT22;10399;50.754;3.366;2022-07-10T03:13:12;16.70;99.90
20481;DHT22;10399;50.754;3.366;2022-07-10T03:15:38;16.70;99.90
20481;DHT22;10399;50.754;3.366;2022-07-10T03:18:05;16.70;99.90
20481;DHT22;10399;50.754;3.366;2022-07-10T03:20:33;16.70;99.90
20481;DHT22;10399;50.754;3.366;2022-07-10T03:23:00;16.70;99.90
20481;DHT22;10399;50.754;3.366;2022-07-10T03:25:28;16.80;99.90
20481;DHT22;10399;50.754;3.366;2022-07-10T03:27:55;16.70;99.90
20481;DHT22;10399;50.754;3.366;2022-07-10T03:30:21;16.70;99.90
20481;DHT22;10399;50.754;3.366;2022-07-10T03:32:49;16.70;99.90
20481;DHT22;10399;50.754;3.366;2022-07-10T03:35:16;16.70;99.90
20481;DHT22;10399;50.754;3.366;2022-07-10T03:37:43;16.70;99.90
20481;DHT22;10399;50.754;3.366;2022-07-10T03:40:10;16.60;99.90
20481;DHT22;10399;50.754;3.366;2022-07-10T03:42:37;16.60;99.90
20481;DHT22;10399;50.754;3.366;2022-07-10T03:45:05;16.60;99.90
20481;DHT22;10399;50.754;3.366;2022-07-10T03:47:32;16.60;99.90
20481;DHT22;10399;50.754;3.366;2022-07-10T03:49:59;16.60;99.90
20481;DHT22;10399;50.754;3.366;2022-07-10T03:52:48;16.70;99.90
20481;DHT22;10399;50.754;3.366;2022-07-10T03:55:15;16.70;99.90
20481;DHT22;10399;50.754;3.366;2022-07-10T03:57:43;16.50;99.90
20481;DHT22;10399;50.754;3.366;2022-07-10T04:00:30;16.50;99.90
20481;DHT22;10399;50.754;3.366;2022-07-10T04:03:04;16.50;99.90
20481;DHT22;10399;50.754;3.366;2022-07-10T04:05:33;16.60;99.90
20481;DHT22;10399;50.754;3.366;2022-07-10T04:08:02;16.60;99.90
20481;DHT22;10399;50.754;3.366;2022-07-10T04:10:30;16.60;99.90
20481;DHT22;10399;50.754;3.366;2022-07-10T04:12:58;16.70;99.90
20481;DHT22;10399;50.754;3.366;2022-07-10T04:15:25;16.70;99.90
20481;DHT22;10399;50.754;3.366;2022-07-10T04:17:53;16.90;99.90
20481;DHT22;10399;50.754;3.366;2022-07-10T04:20:20;17.10;99.90
20481;DHT22;10399;50.754;3.366;2022-07-10T04:22:49;17.30;99.90
20481;DHT22;10399;50.754;3.366;2022-07-10T04:25:17;16.90;99.90
20481;DHT22;10399;50.754;3.366;2022-07-10T04:27:44;16.70;99.90
20481;DHT22;10399;50.754;3.366;2022-07-10T04:30:11;16.60;99.90
20481;DHT22;10399;50.754;3.366;2022-07-10T04:32:39;16.70;99.90
20481;DHT22;10399;50.754;3.366;2022-07-10T04:35:06;16.70;99.90
20481;DHT22;10399;50.754;3.366;2022-07-10T04:37:34;16.60;99.90
20481;DHT22;10399;50.754;3.366;2022-07-10T04:40:01;16.70;99.90
20481;DHT22;10399;50.754;3.366;2022-07-10T04:42:29;16.70;99.90
20481;DHT22;10399;50.754;3.366;2022-07-10T04:44:56;16.70;99.90
20481;DHT22;10399;50.754;3.366;2022-07-10T04:47:23;16.70;99.90
20481;DHT22;10399;50.754;3.366;2022-07-10T04:49:50;16.80;99.90
20481;DHT22;10399;50.754;3.366;2022-07-10T04:52:17;16.90;99.90
20481;DHT22;10399;50.754;3.366;2022-07-10T04:54:44;16.90;99.90
20481;DHT22;10399;50.754;3.366;2022-07-10T04:57:11;17.00;99.90
20481;DHT22;10399;50.754;3.366;2022-07-10T04:59:38;17.00;99.90
20481;DHT22;10399;50.754;3.366;2022-07-10T05:02:05;17.30;99.90
20481;DHT22;10399;50.754;3.366;2022-07-10T05:04:32;17.30;99.90
20481;DHT22;10399;50.754;3.366;2022-07-10T05:06:59;17.30;99.90
20481;DHT22;10399;50.754;3.366;2022-07-10T05:09:26;17.30;99.90
20481;DHT22;10399;50.754;3.366;2022-07-10T05:11:53;17.40;99.90
20481;DHT22;10399;50.754;3.366;2022-07-10T05:14:20;17.40;99.90
20481;DHT22;10399;50.754;3.366;2022-07-10T05:16:48;17.50;99.90
20481;DHT22;10399;50.754;3.366;2022-07-10T05:19:15;17.60;99.90
20481;DHT22;10399;50.754;3.366;2022-07-10T05:21:43;17.60;99.90
20481;DHT22;10399;50.754;3.366;2022-07-10T05:24:10;17.70;99.90
20481;DHT22;10399;50.754;3.366;2022-07-10T05:26:38;17.70;99.90
20481;DHT22;10399;50.754;3.366;2022-07-10T05:29:04;17.80;99.90
20481;DHT22;10399;50.754;3.366;2022-07-10T05:31:31;17.80;99.90
20481;DHT22;10399;50.754;3.366;2022-07-10T05:33:59;17.90;99.90
20481;DHT22;10399;50.754;3.366;2022-07-10T05:36:26;18.00;99.90
20481;DHT22;10399;50.754;3.366;2022-07-10T05:38:53;18.00;99.90
20481;DHT22;10399;50.754;3.366;2022-07-10T05:41:23;18.00;99.90
20481;DHT22;10399;50.754;3.366;2022-07-10T05:43:50;18.00;99.90
20481;DHT22;10399;50.754;3.366;2022-07-10T05:46:17;18.00;99.90
20481;DHT22;10399;50.754;3.366;2022-07-10T05:48:44;18.10;99.90
20481;DHT22;10399;50.754;3.366;2022-07-10T05:51:12;18.10;99.90
20481;DHT22;10399;50.754;3.366;2022-07-10T05:53:58;18.20;99.90
20481;DHT22;10399;50.754;3.366;2022-07-10T05:56:28;18.30;99.90
20481;DHT22;10399;50.754;3.366;2022-07-10T05:58:55;18.30;99.90
20481;DHT22;10399;50.754;3.366;2022-07-10T06:01:23;18.40;99.90
20481;DHT22;10399;50.754;3.366;2022-07-10T06:03:50;18.50;99.90
20481;DHT22;10399;50.754;3.366;2022-07-10T06:06:17;18.50;99.90
20481;DHT22;10399;50.754;3.366;2022-07-10T06:08:45;18.60;99.90
20481;DHT22;10399;50.754;3.366;2022-07-10T06:11:12;18.80;99.90
20481;DHT22;10399;50.754;3.366;2022-07-10T06:13:39;18.90;99.90
20481;DHT22;10399;50.754;3.366;2022-07-10T06:16:06;18.90;99.90
20481;DHT22;10399;50.754;3.366;2022-07-10T06:18:34;19.00;99.90
20481;DHT22;10399;50.754;3.366;2022-07-10T06:21:01;19.00;99.90
20481;DHT22;10399;50.754;3.366;2022-07-10T06:23:29;19.10;99.90
20481;DHT22;10399;50.754;3.366;2022-07-10T06:25:56;19.20;99.90
20481;DHT22;10399;50.754;3.366;2022-07-10T06:28:24;19.10;99.90
20481;DHT22;10399;50.754;3.366;2022-07-10T06:30:50;19.20;99.90
20481;DHT22;10399;50.754;3.366;2022-07-10T06:33:25;19.30;99.90
20481;DHT22;10399;50.754;3.366;2022-07-10T06:35:52;19.40;99.90
20481;DHT22;10399;50.754;3.366;2022-07-10T06:38:19;19.50;99.90
20481;DHT22;10399;50.754;3.366;2022-07-10T06:40:47;19.50;99.90
20481;DHT22;10399;50.754;3.366;2022-07-10T06:43:14;19.50;99.90
20481;DHT22;10399;50.754;3.366;2022-07-10T06:45:41;19.50;99.90
20481;DHT22;10399;50.754;3.366;2022-07-10T06:48:08;19.60;99.90
20481;DHT22;10399;50.754;3.366;2022-07-10T06:50:36;19.60;99.90
20481;DHT22;10399;50.754;3.366;2022-07-10T06:55:54;19.70;99.90
20481;DHT22;10399;50.754;3.366;2022-07-10T06:58:21;19.70;99.90
20481;DHT22;10399;50.754;3.366;2022-07-10T07:00:48;19.70;99.90
20481;DHT22;10399;50.754;3.366;2022-07-10T07:03:15;19.90;99.90
20481;DHT22;10399;50.754;3.366;2022-07-10T07:05:43;20.00;99.90
20481;DHT22;10399;50.754;3.366;2022-07-10T07:08:11;20.10;99.90
20481;DHT22;10399;50.754;3.366;2022-07-10T07:10:40;20.10;99.90
20481;DHT22;10399;50.754;3.366;2022-07-10T07:13:09;20.30;99.90
20481;DHT22;10399;50.754;3.366;2022-07-10T07:15:36;20.40;99.90
20481;DHT22;10399;50.754;3.366;2022-07-10T07:18:09;20.40;99.90
20481;DHT22;10399;50.754;3.366;2022-07-10T07:20:39;20.60;99.90
20481;DHT22;10399;50.754;3.366;2022-07-10T07:23:26;20.80;99.90
20481;DHT22;10399;50.754;3.366;2022-07-10T07:25:53;20.90;99.90
20481;DHT22;10399;50.754;3.366;2022-07-10T07:28:20;20.90;99.90
20481;DHT22;10399;50.754;3.366;2022-07-10T07:30:48;20.90;99.90
20481;DHT22;10399;50.754;3.366;2022-07-10T07:33:16;20.80;99.90
20481;DHT22;10399;50.754;3.366;2022-07-10T07:35:43;21.00;99.90
20481;DHT22;10399;50.754;3.366;2022-07-10T07:38:10;21.00;99.90
20481;DHT22;10399;50.754;3.366;2022-07-10T07:40:37;21.00;99.90
20481;DHT22;10399;50.754;3.366;2022-07-10T07:43:05;21.00;99.90
20481;DHT22;10399;50.754;3.366;2022-07-10T07:45:32;21.00;99.90
20481;DHT22;10399;50.754;3.366;2022-07-10T07:47:59;21.20;99.90
20481;DHT22;10399;50.754;3.366;2022-07-10T07:50:33;21.20;99.90
20481;DHT22;10399;50.754;3.366;2022-07-10T07:53:02;21.20;99.90
20481;DHT22;10399;50.754;3.366;2022-07-10T07:55:31;21.30;99.90
20481;DHT22;10399;50.754;3.366;2022-07-10T07:58:00;21.30;99.90
20481;DHT22;10399;50.754;3.366;2022-07-10T08:00:30;21.40;99.90
20481;DHT22;10399;50.754;3.366;2022-07-10T08:02:58;21.60;99.90
20481;DHT22;10399;50.754;3.366;2022-07-10T08:05:27;21.80;99.90
20481;DHT22;10399;50.754;3.366;2022-07-10T08:07:59;21.90;99.90
20481;DHT22;10399;50.754;3.366;2022-07-10T08:10:31;22.00;99.90
20481;DHT22;10399;50.754;3.366;2022-07-10T08:12:58;22.30;99.90
20481;DHT22;10399;50.754;3.366;2022-07-10T08:15:25;22.30;99.90
20481;DHT22;10399;50.754;3.366;2022-07-10T08:17:54;22.30;99.90
20481;DHT22;10399;50.754;3.366;2022-07-10T08:20:26;22.40;99.90
20481;DHT22;10399;50.754;3.366;2022-07-10T08:22:53;22.40;99.90
20481;DHT22;10399;50.754;3.366;2022-07-10T08:25:28;22.50;99.90
20481;DHT22;10399;50.754;3.366;2022-07-10T08:28:01;22.60;99.90
20481;DHT22;10399;50.754;3.366;2022-07-10T08:30:28;22.70;99.90
20481;DHT22;10399;50.754;3.366;2022-07-10T08:32:55;22.80;99.90
20481;DHT22;10399;50.754;3.366;2022-07-10T08:35:23;22.90;99.90
20481;DHT22;10399;50.754;3.366;2022-07-10T08:37:50;23.00;99.90
20481;DHT22;10399;50.754;3.366;2022-07-10T08:40:21;23.20;99.90
20481;DHT22;10399;50.754;3.366;2022-07-10T08:42:52;23.50;99.90
20481;DHT22;10399;50.754;3.366;2022-07-10T08:45:22;23.30;99.90
20481;DHT22;10399;50.754;3.366;2022-07-10T08:47:53;23.10;99.90
20481;DHT22;10399;50.754;3.366;2022-07-10T08:50:24;23.40;99.90
20481;DHT22;10399;50.754;3.366;2022-07-10T08:53:12;23.70;99.90
20481;DHT22;10399;50.754;3.366;2022-07-10T08:55:41;23.70;99.90
20481;DHT22;10399;50.754;3.366;2022-07-10T08:58:09;24.00;99.90
20481;DHT22;10399;50.754;3.366;2022-07-10T09:00:40;24.50;99.90
20481;DHT22;10399;50.754;3.366;2022-07-10T09:03:08;24.70;99.90
20481;DHT22;10399;50.754;3.366;2022-07-10T09:05:35;24.80;99.90
20481;DHT22;10399;50.754;3.366;2022-07-10T09:08:02;25.10;99.90
20481;DHT22;10399;50.754;3.366;2022-07-10T09:10:29;25.30;99.90
20481;DHT22;10399;50.754;3.366;2022-07-10T09:12:59;25.20;99.90
20481;DHT22;10399;50.754;3.366;2022-07-10T09:15:31;25.10;99.90
20481;DHT22;10399;50.754;3.366;2022-07-10T09:18:03;25.20;99.90
20481;DHT22;10399;50.754;3.366;2022-07-10T09:20:39;25.40;99.90
20481;DHT22;10399;50.754;3.366;2022-07-10T09:23:17;25.50;99.90
20481;DHT22;10399;50.754;3.366;2022-07-10T09:25:46;25.80;99.90
20481;DHT22;10399;50.754;3.366;2022-07-10T09:28:20;26.00;99.90
20481;DHT22;10399;50.754;3.366;2022-07-10T09:30:48;26.00;99.90
20481;DHT22;10399;50.754;3.366;2022-07-10T09:36:13;25.70;99.90
20481;DHT22;10399;50.754;3.366;2022-07-10T09:41:14;26.20;99.90
20481;DHT22;10399;50.754;3.366;2022-07-10T09:49:09;26.50;99.90
20481;DHT22;10399;50.754;3.366;2022-07-10T09:51:39;26.10;99.90
20481;DHT22;10399;50.754;3.366;2022-07-10T09:54:14;26.40;99.90
20481;DHT22;10399;50.754;3.366;2022-07-10T09:56:43;26.70;99.90
20481;DHT22;10399;50.754;3.366;2022-07-10T09:59:15;26.30;99.90
20481;DHT22;10399;50.754;3.366;2022-07-10T10:01:48;26.90;99.90
20481;DHT22;10399;50.754;3.366;2022-07-10T10:04:17;27.00;99.90
20481;DHT22;10399;50.754;3.366;2022-07-10T10:06:52;27.10;99.90
20481;DHT22;10399;50.754;3.366;2022-07-10T10:09:40;27.70;99.90
20481;DHT22;10399;50.754;3.366;2022-07-10T10:12:16;28.00;99.90
20481;DHT22;10399;50.754;3.366;2022-07-10T10:14:45;28.10;99.90
20481;DHT22;10399;50.754;3.366;2022-07-10T10:17:13;27.90;99.90
20481;DHT22;10399;50.754;3.366;2022-07-10T10:19:43;28.10;99.90
20481;DHT22;10399;50.754;3.366;2022-07-10T10:22:29;27.70;99.90
20481;DHT22;10399;50.754;3.366;2022-07-10T10:24:59;27.90;99.90
20481;DHT22;10399;50.754;3.366;2022-07-10T10:27:27;28.20;99.90
20481;DHT22;10399;50.754;3.366;2022-07-10T10:29:55;28.50;99.90
20481;DHT22;10399;50.754;3.366;2022-07-10T10:32:22;28.50;99.90
20481;DHT22;10399;50.754;3.366;2022-07-10T10:34:51;28.20;99.90
20481;DHT22;10399;50.754;3.366;2022-07-10T10:40:04;28.80;99.90
20481;DHT22;10399;50.754;3.366;2022-07-10T10:42:36;29.40;99.90
20481;DHT22;10399;50.754;3.366;2022-07-10T10:50:54;30.00;99.90
20481;DHT22;10399;50.754;3.366;2022-07-10T10:53:28;30.30;99.90
20481;DHT22;10399;50.754;3.366;2022-07-10T11:06:39;29.40;99.90
20481;DHT22;10399;50.754;3.366;2022-07-10T11:09:28;29.40;99.90
20481;DHT22;10399;50.754;3.366;2022-07-10T11:14:29;29.70;99.90
20481;DHT22;10399;50.754;3.366;2022-07-10T11:16:57;30.20;99.90
20481;DHT22;10399;50.754;3.366;2022-07-10T11:19:26;30.60;99.90
20481;DHT22;10399;50.754;3.366;2022-07-10T11:24:51;30.60;99.90
20481;DHT22;10399;50.754;3.366;2022-07-10T11:30:13;30.80;99.90
20481;DHT22;10399;50.754;3.366;2022-07-10T11:32:40;30.80;99.90
20481;DHT22;10399;50.754;3.366;2022-07-10T11:35:13;31.10;99.90
20481;DHT22;10399;50.754;3.366;2022-07-10T11:37:53;31.00;99.90
20481;DHT22;10399;50.754;3.366;2022-07-10T11:40:20;30.70;99.90
20481;DHT22;10399;50.754;3.366;2022-07-10T11:42:55;30.50;99.90
20481;DHT22;10399;50.754;3.366;2022-07-10T11:45:27;30.90;99.90
20481;DHT22;10399;50.754;3.366;2022-07-10T11:47:54;31.40;99.90
20481;DHT22;10399;50.754;3.366;2022-07-10T11:50:22;31.70;99.90
20481;DHT22;10399;50.754;3.366;2022-07-10T11:52:50;31.40;99.90
20481;DHT22;10399;50.754;3.366;2022-07-10T11:55:21;31.50;99.90
20481;DHT22;10399;50.754;3.366;2022-07-10T11:57:49;31.30;99.90
20481;DHT22;10399;50.754;3.366;2022-07-10T12:00:24;31.40;99.90
20481;DHT22;10399;50.754;3.366;2022-07-10T12:02:53;32.00;99.90
20481;DHT22;10399;50.754;3.366;2022-07-10T12:05:30;32.10;99.90
20481;DHT22;10399;50.754;3.366;2022-07-10T12:07:58;32.00;99.80
20481;DHT22;10399;50.754;3.366;2022-07-10T12:10:28;32.10;99.80
20481;DHT22;10399;50.754;3.366;2022-07-10T12:13:07;32.30;99.00
20481;DHT22;10399;50.754;3.366;2022-07-10T12:15:37;32.10;99.90
20481;DHT22;10399;50.754;3.366;2022-07-10T12:18:09;32.00;98.00
20481;DHT22;10399;50.754;3.366;2022-07-10T12:20:42;32.60;98.70
20481;DHT22;10399;50.754;3.366;2022-07-10T12:23:17;32.40;97.90
20481;DHT22;10399;50.754;3.366;2022-07-10T12:25:47;32.40;98.30
20481;DHT22;10399;50.754;3.366;2022-07-10T12:28:17;32.40;98.20
20481;DHT22;10399;50.754;3.366;2022-07-10T12:30:44;32.20;98.30
20481;DHT22;10399;50.754;3.366;2022-07-10T12:33:23;32.30;96.80
20481;DHT22;10399;50.754;3.366;2022-07-10T12:35:58;31.80;96.20
20481;DHT22;10399;50.754;3.366;2022-07-10T12:38:27;31.80;98.80
20481;DHT22;10399;50.754;3.366;2022-07-10T12:41:11;32.40;98.70
20481;DHT22;10399;50.754;3.366;2022-07-10T12:43:39;32.80;98.00
20481;DHT22;10399;50.754;3.366;2022-07-10T12:46:14;33.20;97.20
20481;DHT22;10399;50.754;3.366;2022-07-10T12:48:43;33.30;97.40
20481;DHT22;10399;50.754;3.366;2022-07-10T12:51:25;33.30;96.00
20481;DHT22;10399;50.754;3.366;2022-07-10T12:53:52;33.50;95.90
20481;DHT22;10399;50.754;3.366;2022-07-10T12:56:33;33.90;95.30
20481;DHT22;10399;50.754;3.366;2022-07-10T12:59:03;33.90;95.80
20481;DHT22;10399;50.754;3.366;2022-07-10T13:01:44;34.10;95.00
20481;DHT22;10399;50.754;3.366;2022-07-10T13:04:11;34.20;95.00
20481;DHT22;10399;50.754;3.366;2022-07-10T13:06:39;33.90;94.00
20481;DHT22;10399;50.754;3.366;2022-07-10T13:09:24;33.70;93.20
20481;DHT22;10399;50.754;3.366;2022-07-10T13:11:52;33.60;95.00
20481;DHT22;10399;50.754;3.366;2022-07-10T13:14:20;34.10;94.80
20481;DHT22;10399;50.754;3.366;2022-07-10T13:16:47;33.70;93.60
20481;DHT22;10399;50.754;3.366;2022-07-10T13:19:14;33.40;94.20
20481;DHT22;10399;50.754;3.366;2022-07-10T13:21:41;33.90;93.80
20481;DHT22;10399;50.754;3.366;2022-07-10T13:24:08;34.00;93.50
20481;DHT22;10399;50.754;3.366;2022-07-10T13:26:36;34.40;93.10
20481;DHT22;10399;50.754;3.366;2022-07-10T13:29:03;34.50;93.30
20481;DHT22;10399;50.754;3.366;2022-07-10T13:31:29;34.60;92.10
20481;DHT22;10399;50.754;3.366;2022-07-10T13:33:56;34.70;91.20
20481;DHT22;10399;50.754;3.366;2022-07-10T13:36:23;34.40;92.30
20481;DHT22;10399;50.754;3.366;2022-07-10T13:38:51;34.70;92.90
20481;DHT22;10399;50.754;3.366;2022-07-10T13:41:19;34.60;91.40
20481;DHT22;10399;50.754;3.366;2022-07-10T13:43:46;35.10;90.30
20481;DHT22;10399;50.754;3.366;2022-07-10T13:46:13;34.90;91.60
20481;DHT22;10399;50.754;3.366;2022-07-10T13:48:40;34.70;91.00
20481;DHT22;10399;50.754;3.366;2022-07-10T13:51:08;34.50;90.90
20481;DHT22;10399;50.754;3.366;2022-07-10T13:53:35;34.50;90.30
20481;DHT22;10399;50.754;3.366;2022-07-10T13:56:05;34.30;91.70
20481;DHT22;10399;50.754;3.366;2022-07-10T13:58:37;34.20;91.80
20481;DHT22;10399;50.754;3.366;2022-07-10T14:01:05;34.70;91.30
20481;DHT22;10399;50.754;3.366;2022-07-10T14:03:32;34.70;90.60
20481;DHT22;10399;50.754;3.366;2022-07-10T14:05:59;34.70;91.10
20481;DHT22;10399;50.754;3.366;2022-07-10T14:08:26;34.70;89.80
20481;DHT22;10399;50.754;3.366;2022-07-10T14:10:54;34.20;90.50
20481;DHT22;10399;50.754;3.366;2022-07-10T14:13:21;33.60;89.90
20481;DHT22;10399;50.754;3.366;2022-07-10T14:15:48;33.20;91.00
20481;DHT22;10399;50.754;3.366;2022-07-10T14:18:17;33.20;90.90
20481;DHT22;10399;50.754;3.366;2022-07-10T14:21:10;33.00;91.70
20481;DHT22;10399;50.754;3.366;2022-07-10T14:23:39;33.10;91.50
20481;DHT22;10399;50.754;3.366;2022-07-10T14:26:13;33.50;91.90
20481;DHT22;10399;50.754;3.366;2022-07-10T14:28:40;33.80;91.30
20481;DHT22;10399;50.754;3.366;2022-07-10T14:31:07;34.00;91.30
20481;DHT22;10399;50.754;3.366;2022-07-10T14:33:35;34.20;91.40
20481;DHT22;10399;50.754;3.366;2022-07-10T14:36:04;34.70;89.60
20481;DHT22;10399;50.754;3.366;2022-07-10T14:38:31;34.70;89.90
20481;DHT22;10399;50.754;3.366;2022-07-10T14:40:59;34.50;90.60
20481;DHT22;10399;50.754;3.366;2022-07-10T14:43:26;34.60;90.30
20481;DHT22;10399;50.754;3.366;2022-07-10T14:45:54;35.00;89.60
20481;DHT22;10399;50.754;3.366;2022-07-10T14:48:29;35.20;88.10
20481;DHT22;10399;50.754;3.366;2022-07-10T14:51:02;34.70;88.70
20481;DHT22;10399;50.754;3.366;2022-07-10T14:53:29;34.10;87.70
20481;DHT22;10399;50.754;3.366;2022-07-10T14:56:02;33.70;90.00
20481;DHT22;10399;50.754;3.366;2022-07-10T14:58:30;33.30;89.70
20481;DHT22;10399;50.754;3.366;2022-07-10T15:01:10;33.70;90.30
20481;DHT22;10399;50.754;3.366;2022-07-10T15:03:38;34.00;90.70
20481;DHT22;10399;50.754;3.366;2022-07-10T15:06:06;34.80;89.90
20481;DHT22;10399;50.754;3.366;2022-07-10T15:08:33;35.10;88.30
20481;DHT22;10399;50.754;3.366;2022-07-10T15:11:01;34.90;88.00
20481;DHT22;10399;50.754;3.366;2022-07-10T15:13:29;34.60;88.90
20481;DHT22;10399;50.754;3.366;2022-07-10T15:15:57;34.20;89.60
20481;DHT22;10399;50.754;3.366;2022-07-10T15:18:23;34.70;89.80
20481;DHT22;10399;50.754;3.366;2022-07-10T15:20:51;34.70;87.60
20481;DHT22;10399;50.754;3.366;2022-07-10T15:23:18;35.00;89.00
20481;DHT22;10399;50.754;3.366;2022-07-10T15:25:48;34.90;87.30
20481;DHT22;10399;50.754;3.366;2022-07-10T15:28:15;35.30;86.60
20481;DHT22;10399;50.754;3.366;2022-07-10T15:30:42;35.40;85.90
20481;DHT22;10399;50.754;3.366;2022-07-10T15:33:11;35.60;87.00
20481;DHT22;10399;50.754;3.366;2022-07-10T15:35:39;35.70;85.80
20481;DHT22;10399;50.754;3.366;2022-07-10T15:38:06;35.90;85.70
20481;DHT22;10399;50.754;3.366;2022-07-10T15:40:33;35.80;86.10
20481;DHT22;10399;50.754;3.366;2022-07-10T15:43:01;35.30;86.20
20481;DHT22;10399;50.754;3.366;2022-07-10T15:45:31;35.00;85.60
20481;DHT22;10399;50.754;3.366;2022-07-10T15:47:59;35.40;86.40
20481;DHT22;10399;50.754;3.366;2022-07-10T15:50:27;35.00;84.90
20481;DHT22;10399;50.754;3.366;2022-07-10T15:53:00;34.60;85.50
20481;DHT22;10399;50.754;3.366;2022-07-10T15:55:27;34.60;86.30
20481;DHT22;10399;50.754;3.366;2022-07-10T15:57:55;34.80;85.30
20481;DHT22;10399;50.754;3.366;2022-07-10T16:00:22;34.90;85.00
20481;DHT22;10399;50.754;3.366;2022-07-10T16:02:49;34.70;84.40
20481;DHT22;10399;50.754;3.366;2022-07-10T16:05:24;34.90;84.60
20481;DHT22;10399;50.754;3.366;2022-07-10T16:07:52;35.00;85.00
20481;DHT22;10399;50.754;3.366;2022-07-10T16:10:22;34.60;85.00
20481;DHT22;10399;50.754;3.366;2022-07-10T16:13:12;34.90;83.70
20481;DHT22;10399;50.754;3.366;2022-07-10T16:15:38;34.90;82.80
20481;DHT22;10399;50.754;3.366;2022-07-10T16:18:06;34.80;82.60
20481;DHT22;10399;50.754;3.366;2022-07-10T16:20:33;34.50;82.70
20481;DHT22;10399;50.754;3.366;2022-07-10T16:23:03;34.20;84.40